ZWWW/URC METAR and TAF weather

Enter ICAO airport designator
Station Type Date Time Source
ZWWW METAR 2020/04/09 09:30 UTC NOAA

ZWWW 090930Z 30006MPS 8000 NSC 22/01 Q1011 NOSIG


Station Type Date Time Source
ZWWW Decoded METAR 2020/04/09 09:30 UTC NOAA

Urum-Qi / Diwopu, China (ZWWW) 43-54N 087-28E
Apr 09, 2020 - 05:30 AM EDT / 2020.04.09 0930 UTC
Wind: from the WNW (300 degrees) at 13 MPH (12 KT):0
Visibility: 4 mile(s):0
Temperature: 71 F (22 C)
Dew Point: 33 F (1 C)
Relative Humidity: 24%
Pressure (altimeter): 29.85 in. Hg (1011 hPa)
ob: ZWWW 090930Z 30006MPS 8000 NSC 22/01 Q1011 NOSIG
cycle: 9

Station Type Date Time Source
ZWWW TAF 2020/04/09 12:00 UTC NOAA

TAF ZWWW 090904Z 0912/1012 29005G10MPS CAVOK TX14/1009Z TN06/0923Z
TEMPO 0913/0917 27010G17MPS 1600 SA NSC
BECMG 0922/0923 35004MPS CAVOK

Example: see airport list